sensor_id;sensor_type;location;lat;lon;timestamp;P1;durP1;ratioP1;P2;durP2;ratioP2
72882;SDS011;61017;37.812;-122.286;2023-10-31T00:00:29;4.30;;;2.20;;
72882;SDS011;61017;37.812;-122.286;2023-10-31T00:02:01;4.13;;;2.45;;
72882;SDS011;61017;37.812;-122.286;2023-10-31T00:03:32;3.60;;;2.40;;
72882;SDS011;61017;37.812;-122.286;2023-10-31T00:05:04;4.85;;;2.30;;
72882;SDS011;61017;37.812;-122.286;2023-10-31T00:06:36;4.25;;;2.50;;
72882;SDS011;61017;37.812;-122.286;2023-10-31T00:08:07;5.20;;;2.30;;
72882;SDS011;61017;37.812;-122.286;2023-10-31T00:09:39;4.72;;;2.45;;
72882;SDS011;61017;37.812;-122.286;2023-10-31T00:11:11;4.85;;;2.47;;
72882;SDS011;61017;37.812;-122.286;2023-10-31T00:12:43;3.20;;;2.30;;
72882;SDS011;61017;37.812;-122.286;2023-10-31T00:14:14;3.45;;;2.30;;
72882;SDS011;61017;37.812;-122.286;2023-10-31T00:15:46;4.10;;;2.40;;
72882;SDS011;61017;37.812;-122.286;2023-10-31T00:17:18;4.22;;;2.50;;
72882;SDS011;61017;37.812;-122.286;2023-10-31T00:18:49;4.05;;;2.55;;
72882;SDS011;61017;37.812;-122.286;2023-10-31T00:20:21;3.88;;;2.40;;
72882;SDS011;61017;37.812;-122.286;2023-10-31T00:21:52;3.53;;;2.40;;
72882;SDS011;61017;37.812;-122.286;2023-10-31T00:23:24;3.95;;;2.40;;
72882;SDS011;61017;37.812;-122.286;2023-10-31T00:24:55;3.45;;;2.15;;
72882;SDS011;61017;37.812;-122.286;2023-10-31T00:26:27;3.03;;;2.15;;
72882;SDS011;61017;37.812;-122.286;2023-10-31T00:27:58;3.83;;;2.47;;
72882;SDS011;61017;37.812;-122.286;2023-10-31T00:29:30;3.28;;;2.28;;
72882;SDS011;61017;37.812;-122.286;2023-10-31T00:31:02;4.13;;;2.40;;
72882;SDS011;61017;37.812;-122.286;2023-10-31T00:32:33;4.00;;;2.40;;
72882;SDS011;61017;37.812;-122.286;2023-10-31T00:34:05;3.55;;;2.28;;
72882;SDS011;61017;37.812;-122.286;2023-10-31T00:35:37;3.77;;;2.30;;
72882;SDS011;61017;37.812;-122.286;2023-10-31T00:37:09;3.08;;;2.40;;
72882;SDS011;61017;37.812;-122.286;2023-10-31T00:38:40;4.07;;;2.22;;
72882;SDS011;61017;37.812;-122.286;2023-10-31T00:40:12;3.92;;;2.40;;
72882;SDS011;61017;37.812;-122.286;2023-10-31T00:41:44;4.38;;;2.38;;
72882;SDS011;61017;37.812;-122.286;2023-10-31T00:43:15;4.30;;;2.73;;
72882;SDS011;61017;37.812;-122.286;2023-10-31T00:44:47;4.50;;;2.45;;
72882;SDS011;61017;37.812;-122.286;2023-10-31T00:46:18;3.22;;;2.10;;
72882;SDS011;61017;37.812;-122.286;2023-10-31T00:47:50;4.40;;;2.42;;
72882;SDS011;61017;37.812;-122.286;2023-10-31T00:49:22;3.35;;;2.33;;
72882;SDS011;61017;37.812;-122.286;2023-10-31T00:50:53;4.20;;;2.55;;
72882;SDS011;61017;37.812;-122.286;2023-10-31T00:52:25;3.60;;;2.30;;
72882;SDS011;61017;37.812;-122.286;2023-10-31T00:53:56;4.25;;;2.45;;
72882;SDS011;61017;37.812;-122.286;2023-10-31T00:55:28;2.65;;;2.33;;
72882;SDS011;61017;37.812;-122.286;2023-10-31T00:57:00;3.10;;;2.20;;
72882;SDS011;61017;37.812;-122.286;2023-10-31T00:58:31;4.15;;;2.55;;
72882;SDS011;61017;37.812;-122.286;2023-10-31T01:00:03;3.70;;;2.30;;
72882;SDS011;61017;37.812;-122.286;2023-10-31T01:01:35;4.25;;;2.50;;
72882;SDS011;61017;37.812;-122.286;2023-10-31T01:03:06;3.53;;;2.60;;
72882;SDS011;61017;37.812;-122.286;2023-10-31T01:04:38;4.18;;;2.60;;
72882;SDS011;61017;37.812;-122.286;2023-10-31T01:06:09;5.43;;;2.40;;
72882;SDS011;61017;37.812;-122.286;2023-10-31T01:07:41;3.50;;;2.50;;
72882;SDS011;61017;37.812;-122.286;2023-10-31T01:09:13;5.00;;;2.40;;
72882;SDS011;61017;37.812;-122.286;2023-10-31T01:10:45;4.07;;;2.50;;
72882;SDS011;61017;37.812;-122.286;2023-10-31T01:12:17;3.03;;;2.38;;
72882;SDS011;61017;37.812;-122.286;2023-10-31T01:13:48;4.65;;;2.40;;
72882;SDS011;61017;37.812;-122.286;2023-10-31T01:15:20;3.72;;;2.40;;
72882;SDS011;61017;37.812;-122.286;2023-10-31T01:16:51;3.47;;;2.40;;
72882;SDS011;61017;37.812;-122.286;2023-10-31T01:18:23;3.17;;;2.20;;
72882;SDS011;61017;37.812;-122.286;2023-10-31T01:19:55;3.97;;;2.45;;
72882;SDS011;61017;37.812;-122.286;2023-10-31T01:21:26;3.60;;;2.45;;
72882;SDS011;61017;37.812;-122.286;2023-10-31T01:22:58;4.28;;;2.40;;
72882;SDS011;61017;37.812;-122.286;2023-10-31T01:24:29;3.60;;;2.40;;
72882;SDS011;61017;37.812;-122.286;2023-10-31T01:26:01;4.28;;;2.25;;
72882;SDS011;61017;37.812;-122.286;2023-10-31T01:27:32;3.72;;;2.20;;
72882;SDS011;61017;37.812;-122.286;2023-10-31T01:29:04;3.50;;;2.30;;
72882;SDS011;61017;37.812;-122.286;2023-10-31T01:30:36;3.35;;;2.55;;
72882;SDS011;61017;37.812;-122.286;2023-10-31T01:32:07;4.90;;;2.60;;
72882;SDS011;61017;37.812;-122.286;2023-10-31T01:33:39;3.20;;;2.25;;
72882;SDS011;61017;37.812;-122.286;2023-10-31T01:35:10;3.20;;;2.25;;
72882;SDS011;61017;37.812;-122.286;2023-10-31T01:36:42;2.90;;;2.17;;
72882;SDS011;61017;37.812;-122.286;2023-10-31T01:38:13;3.85;;;2.50;;
72882;SDS011;61017;37.812;-122.286;2023-10-31T01:39:45;3.40;;;2.40;;
72882;SDS011;61017;37.812;-122.286;2023-10-31T01:41:16;3.92;;;2.55;;
72882;SDS011;61017;37.812;-122.286;2023-10-31T01:42:48;3.63;;;2.50;;
72882;SDS011;61017;37.812;-122.286;2023-10-31T01:44:20;3.13;;;2.30;;
72882;SDS011;61017;37.812;-122.286;2023-10-31T01:45:52;4.80;;;2.58;;
72882;SDS011;61017;37.812;-122.286;2023-10-31T01:47:23;3.55;;;2.30;;
72882;SDS011;61017;37.812;-122.286;2023-10-31T01:48:55;4.60;;;2.78;;
72882;SDS011;61017;37.812;-122.286;2023-10-31T01:50:26;5.18;;;2.97;;
72882;SDS011;61017;37.812;-122.286;2023-10-31T01:52:01;3.65;;;2.40;;
72882;SDS011;61017;37.812;-122.286;2023-10-31T01:53:34;3.33;;;2.60;;
72882;SDS011;61017;37.812;-122.286;2023-10-31T01:55:06;3.72;;;2.42;;
72882;SDS011;61017;37.812;-122.286;2023-10-31T01:56:38;5.32;;;2.75;;
72882;SDS011;61017;37.812;-122.286;2023-10-31T01:58:10;4.18;;;2.65;;
72882;SDS011;61017;37.812;-122.286;2023-10-31T01:59:42;4.10;;;2.65;;
72882;SDS011;61017;37.812;-122.286;2023-10-31T02:01:14;3.90;;;2.67;;
72882;SDS011;61017;37.812;-122.286;2023-10-31T02:02:46;4.07;;;2.70;;
72882;SDS011;61017;37.812;-122.286;2023-10-31T02:04:18;3.80;;;2.60;;
72882;SDS011;61017;37.812;-122.286;2023-10-31T02:05:52;4.55;;;3.10;;
72882;SDS011;61017;37.812;-122.286;2023-10-31T02:07:25;5.25;;;2.80;;
72882;SDS011;61017;37.812;-122.286;2023-10-31T02:09:15;3.47;;;2.60;;
72882;SDS011;61017;37.812;-122.286;2023-10-31T02:10:47;4.00;;;2.90;;
72882;SDS011;61017;37.812;-122.286;2023-10-31T02:12:31;4.50;;;2.80;;
72882;SDS011;61017;37.812;-122.286;2023-10-31T02:14:03;3.70;;;2.67;;
72882;SDS011;61017;37.812;-122.286;2023-10-31T02:15:35;6.60;;;2.72;;
72882;SDS011;61017;37.812;-122.286;2023-10-31T02:17:07;5.18;;;2.83;;
72882;SDS011;61017;37.812;-122.286;2023-10-31T02:18:38;4.75;;;2.83;;
72882;SDS011;61017;37.812;-122.286;2023-10-31T02:20:10;4.28;;;3.03;;
72882;SDS011;61017;37.812;-122.286;2023-10-31T02:21:42;4.80;;;2.77;;
72882;SDS011;61017;37.812;-122.286;2023-10-31T02:23:15;3.70;;;2.72;;
72882;SDS011;61017;37.812;-122.286;2023-10-31T02:24:47;4.68;;;2.75;;
72882;SDS011;61017;37.812;-122.286;2023-10-31T02:26:18;4.75;;;2.97;;
72882;SDS011;61017;37.812;-122.286;2023-10-31T02:27:50;4.05;;;2.80;;
72882;SDS011;61017;37.812;-122.286;2023-10-31T02:29:21;4.05;;;2.70;;
72882;SDS011;61017;37.812;-122.286;2023-10-31T02:30:53;4.07;;;3.00;;
72882;SDS011;61017;37.812;-122.286;2023-10-31T02:32:25;4.73;;;2.97;;
72882;SDS011;61017;37.812;-122.286;2023-10-31T02:33:57;4.45;;;3.25;;
72882;SDS011;61017;37.812;-122.286;2023-10-31T02:35:28;5.30;;;3.05;;
72882;SDS011;61017;37.812;-122.286;2023-10-31T02:37:00;5.35;;;3.03;;
72882;SDS011;61017;37.812;-122.286;2023-10-31T02:38:31;4.50;;;3.03;;
72882;SDS011;61017;37.812;-122.286;2023-10-31T02:40:03;4.90;;;2.70;;
72882;SDS011;61017;37.812;-122.286;2023-10-31T02:41:35;4.85;;;2.90;;
72882;SDS011;61017;37.812;-122.286;2023-10-31T02:43:07;3.88;;;2.55;;
72882;SDS011;61017;37.812;-122.286;2023-10-31T02:44:38;4.70;;;3.00;;
72882;SDS011;61017;37.812;-122.286;2023-10-31T02:46:10;3.70;;;2.65;;
72882;SDS011;61017;37.812;-122.286;2023-10-31T02:47:42;4.22;;;2.75;;
72882;SDS011;61017;37.812;-122.286;2023-10-31T02:49:13;4.82;;;2.88;;
72882;SDS011;61017;37.812;-122.286;2023-10-31T02:50:45;4.43;;;2.90;;
72882;SDS011;61017;37.812;-122.286;2023-10-31T02:52:17;5.10;;;2.70;;
72882;SDS011;61017;37.812;-122.286;2023-10-31T02:53:48;5.47;;;2.80;;
72882;SDS011;61017;37.812;-122.286;2023-10-31T02:55:20;4.70;;;2.80;;
72882;SDS011;61017;37.812;-122.286;2023-10-31T02:56:51;5.55;;;2.80;;
72882;SDS011;61017;37.812;-122.286;2023-10-31T02:58:23;4.75;;;3.17;;
72882;SDS011;61017;37.812;-122.286;2023-10-31T02:59:54;5.20;;;2.88;;
72882;SDS011;61017;37.812;-122.286;2023-10-31T03:01:28;4.28;;;2.88;;
72882;SDS011;61017;37.812;-122.286;2023-10-31T03:02:59;5.00;;;2.90;;
72882;SDS011;61017;37.812;-122.286;2023-10-31T03:04:31;4.97;;;2.88;;
72882;SDS011;61017;37.812;-122.286;2023-10-31T03:06:04;5.82;;;3.10;;
72882;SDS011;61017;37.812;-122.286;2023-10-31T03:07:36;6.32;;;3.13;;
72882;SDS011;61017;37.812;-122.286;2023-10-31T03:09:07;4.57;;;3.10;;
72882;SDS011;61017;37.812;-122.286;2023-10-31T03:10:40;5.03;;;2.97;;
72882;SDS011;61017;37.812;-122.286;2023-10-31T03:12:12;4.75;;;3.10;;
72882;SDS011;61017;37.812;-122.286;2023-10-31T03:13:43;5.55;;;2.80;;
72882;SDS011;61017;37.812;-122.286;2023-10-31T03:15:15;4.72;;;2.65;;
72882;SDS011;61017;37.812;-122.286;2023-10-31T03:16:46;5.15;;;2.97;;
72882;SDS011;61017;37.812;-122.286;2023-10-31T03:18:18;4.22;;;2.80;;
72882;SDS011;61017;37.812;-122.286;2023-10-31T03:19:50;4.63;;;2.80;;
72882;SDS011;61017;37.812;-122.286;2023-10-31T03:21:21;5.38;;;2.67;;
72882;SDS011;61017;37.812;-122.286;2023-10-31T03:22:53;6.10;;;2.90;;
72882;SDS011;61017;37.812;-122.286;2023-10-31T03:24:24;4.60;;;3.08;;
72882;SDS011;61017;37.812;-122.286;2023-10-31T03:25:56;5.63;;;3.03;;
72882;SDS011;61017;37.812;-122.286;2023-10-31T03:27:27;4.93;;;2.95;;
72882;SDS011;61017;37.812;-122.286;2023-10-31T03:28:59;5.40;;;2.90;;
72882;SDS011;61017;37.812;-122.286;2023-10-31T03:30:30;5.18;;;2.90;;
72882;SDS011;61017;37.812;-122.286;2023-10-31T03:32:02;3.80;;;2.80;;
72882;SDS011;61017;37.812;-122.286;2023-10-31T03:33:34;4.72;;;2.80;;
72882;SDS011;61017;37.812;-122.286;2023-10-31T03:35:05;5.45;;;2.80;;
72882;SDS011;61017;37.812;-122.286;2023-10-31T03:36:37;3.73;;;2.70;;
72882;SDS011;61017;37.812;-122.286;2023-10-31T03:38:09;4.15;;;2.88;;
72882;SDS011;61017;37.812;-122.286;2023-10-31T03:39:41;4.15;;;2.92;;
72882;SDS011;61017;37.812;-122.286;2023-10-31T03:41:12;5.10;;;3.00;;
72882;SDS011;61017;37.812;-122.286;2023-10-31T03:42:44;5.47;;;3.00;;
72882;SDS011;61017;37.812;-122.286;2023-10-31T03:44:15;4.95;;;2.95;;
72882;SDS011;61017;37.812;-122.286;2023-10-31T03:45:47;5.90;;;3.15;;
72882;SDS011;61017;37.812;-122.286;2023-10-31T03:47:18;3.88;;;2.90;;
72882;SDS011;61017;37.812;-122.286;2023-10-31T03:48:50;5.20;;;3.08;;
72882;SDS011;61017;37.812;-122.286;2023-10-31T03:50:21;5.53;;;2.95;;
72882;SDS011;61017;37.812;-122.286;2023-10-31T03:51:53;5.55;;;3.10;;
72882;SDS011;61017;37.812;-122.286;2023-10-31T03:53:24;5.03;;;3.10;;
72882;SDS011;61017;37.812;-122.286;2023-10-31T03:54:56;5.25;;;3.00;;
72882;SDS011;61017;37.812;-122.286;2023-10-31T03:56:27;4.43;;;2.65;;
72882;SDS011;61017;37.812;-122.286;2023-10-31T03:57:59;3.58;;;2.90;;
72882;SDS011;61017;37.812;-122.286;2023-10-31T03:59:30;3.95;;;2.67;;
72882;SDS011;61017;37.812;-122.286;2023-10-31T04:01:02;4.10;;;2.88;;
72882;SDS011;61017;37.812;-122.286;2023-10-31T04:02:34;5.85;;;2.80;;
72882;SDS011;61017;37.812;-122.286;2023-10-31T04:04:05;6.25;;;3.33;;
72882;SDS011;61017;37.812;-122.286;2023-10-31T04:05:37;4.10;;;2.85;;
72882;SDS011;61017;37.812;-122.286;2023-10-31T04:07:08;3.78;;;2.90;;
72882;SDS011;61017;37.812;-122.286;2023-10-31T04:08:40;7.28;;;2.92;;
72882;SDS011;61017;37.812;-122.286;2023-10-31T04:10:12;4.60;;;2.70;;
72882;SDS011;61017;37.812;-122.286;2023-10-31T04:11:43;4.75;;;2.90;;
72882;SDS011;61017;37.812;-122.286;2023-10-31T04:13:15;5.68;;;2.90;;
72882;SDS011;61017;37.812;-122.286;2023-10-31T04:14:46;5.97;;;3.25;;
72882;SDS011;61017;37.812;-122.286;2023-10-31T04:16:18;4.72;;;3.10;;
72882;SDS011;61017;37.812;-122.286;2023-10-31T04:17:50;6.03;;;3.20;;
72882;SDS011;61017;37.812;-122.286;2023-10-31T04:19:21;6.18;;;3.20;;
72882;SDS011;61017;37.812;-122.286;2023-10-31T04:20:53;5.68;;;3.22;;
72882;SDS011;61017;37.812;-122.286;2023-10-31T04:22:24;5.72;;;3.17;;
72882;SDS011;61017;37.812;-122.286;2023-10-31T04:23:56;4.80;;;3.15;;
72882;SDS011;61017;37.812;-122.286;2023-10-31T04:25:27;5.72;;;3.22;;
72882;SDS011;61017;37.812;-122.286;2023-10-31T04:26:59;5.72;;;3.00;;
72882;SDS011;61017;37.812;-122.286;2023-10-31T04:28:30;7.80;;;3.20;;
72882;SDS011;61017;37.812;-122.286;2023-10-31T04:30:02;7.80;;;3.10;;
72882;SDS011;61017;37.812;-122.286;2023-10-31T04:31:34;8.02;;;3.40;;
72882;SDS011;61017;37.812;-122.286;2023-10-31T04:33:05;11.23;;;3.30;;
72882;SDS011;61017;37.812;-122.286;2023-10-31T04:34:37;9.23;;;3.58;;
72882;SDS011;61017;37.812;-122.286;2023-10-31T04:36:09;8.63;;;3.40;;
72882;SDS011;61017;37.812;-122.286;2023-10-31T04:37:40;6.70;;;3.10;;
72882;SDS011;61017;37.812;-122.286;2023-10-31T04:39:12;8.15;;;3.53;;
72882;SDS011;61017;37.812;-122.286;2023-10-31T04:40:43;8.10;;;3.35;;
72882;SDS011;61017;37.812;-122.286;2023-10-31T04:42:15;10.73;;;3.40;;
72882;SDS011;61017;37.812;-122.286;2023-10-31T04:43:46;9.55;;;3.38;;
72882;SDS011;61017;37.812;-122.286;2023-10-31T04:45:18;9.43;;;3.30;;
72882;SDS011;61017;37.812;-122.286;2023-10-31T04:46:49;6.90;;;3.35;;
72882;SDS011;61017;37.812;-122.286;2023-10-31T04:48:21;7.55;;;3.65;;
72882;SDS011;61017;37.812;-122.286;2023-10-31T04:49:52;8.02;;;3.50;;
72882;SDS011;61017;37.812;-122.286;2023-10-31T04:51:24;7.22;;;3.67;;
72882;SDS011;61017;37.812;-122.286;2023-10-31T04:52:55;7.65;;;3.35;;
72882;SDS011;61017;37.812;-122.286;2023-10-31T04:54:27;6.40;;;3.65;;
72882;SDS011;61017;37.812;-122.286;2023-10-31T04:55:58;9.00;;;3.47;;
72882;SDS011;61017;37.812;-122.286;2023-10-31T04:57:30;5.82;;;3.38;;
72882;SDS011;61017;37.812;-122.286;2023-10-31T04:59:02;6.00;;;2.92;;
72882;SDS011;61017;37.812;-122.286;2023-10-31T05:00:34;5.72;;;3.47;;
72882;SDS011;61017;37.812;-122.286;2023-10-31T05:02:05;8.50;;;3.60;;
72882;SDS011;61017;37.812;-122.286;2023-10-31T05:03:37;5.10;;;3.33;;
72882;SDS011;61017;37.812;-122.286;2023-10-31T05:05:09;7.87;;;3.70;;
72882;SDS011;61017;37.812;-122.286;2023-10-31T05:06:40;6.35;;;3.60;;
72882;SDS011;61017;37.812;-122.286;2023-10-31T05:08:12;7.20;;;3.38;;
72882;SDS011;61017;37.812;-122.286;2023-10-31T05:09:43;5.95;;;3.42;;
72882;SDS011;61017;37.812;-122.286;2023-10-31T05:11:18;7.15;;;3.40;;
72882;SDS011;61017;37.812;-122.286;2023-10-31T05:12:49;6.57;;;3.70;;
72882;SDS011;61017;37.812;-122.286;2023-10-31T05:14:21;7.65;;;3.50;;
72882;SDS011;61017;37.812;-122.286;2023-10-31T05:15:55;6.53;;;3.63;;
72882;SDS011;61017;37.812;-122.286;2023-10-31T05:17:26;6.03;;;3.60;;
72882;SDS011;61017;37.812;-122.286;2023-10-31T05:18:58;5.50;;;3.72;;
72882;SDS011;61017;37.812;-122.286;2023-10-31T05:20:30;6.25;;;3.88;;
72882;SDS011;61017;37.812;-122.286;2023-10-31T05:22:01;6.40;;;3.53;;
72882;SDS011;61017;37.812;-122.286;2023-10-31T05:23:33;6.10;;;3.65;;
72882;SDS011;61017;37.812;-122.286;2023-10-31T05:25:04;7.90;;;3.70;;
72882;SDS011;61017;37.812;-122.286;2023-10-31T05:26:36;7.32;;;3.55;;
72882;SDS011;61017;37.812;-122.286;2023-10-31T05:28:09;6.93;;;3.47;;
72882;SDS011;61017;37.812;-122.286;2023-10-31T05:29:41;6.63;;;3.50;;
72882;SDS011;61017;37.812;-122.286;2023-10-31T05:31:15;6.35;;;3.67;;
72882;SDS011;61017;37.812;-122.286;2023-10-31T05:32:46;7.25;;;3.67;;
72882;SDS011;61017;37.812;-122.286;2023-10-31T05:34:18;5.68;;;3.60;;
72882;SDS011;61017;37.812;-122.286;2023-10-31T05:35:49;6.50;;;3.55;;
72882;SDS011;61017;37.812;-122.286;2023-10-31T05:37:21;6.65;;;3.80;;
72882;SDS011;61017;37.812;-122.286;2023-10-31T05:38:52;5.70;;;3.42;;
72882;SDS011;61017;37.812;-122.286;2023-10-31T05:40:24;5.22;;;3.47;;
72882;SDS011;61017;37.812;-122.286;2023-10-31T05:41:55;7.32;;;3.75;;
72882;SDS011;61017;37.812;-122.286;2023-10-31T05:43:27;6.60;;;4.28;;
72882;SDS011;61017;37.812;-122.286;2023-10-31T05:44:59;4.53;;;3.20;;
72882;SDS011;61017;37.812;-122.286;2023-10-31T05:46:31;7.20;;;3.85;;
72882;SDS011;61017;37.812;-122.286;2023-10-31T05:48:02;8.75;;;3.90;;
72882;SDS011;61017;37.812;-122.286;2023-10-31T05:49:34;6.80;;;3.78;;
72882;SDS011;61017;37.812;-122.286;2023-10-31T05:51:12;8.95;;;3.60;;
72882;SDS011;61017;37.812;-122.286;2023-10-31T05:52:45;6.53;;;3.85;;
72882;SDS011;61017;37.812;-122.286;2023-10-31T05:54:16;5.57;;;3.85;;
72882;SDS011;61017;37.812;-122.286;2023-10-31T05:55:48;7.07;;;3.95;;
72882;SDS011;61017;37.812;-122.286;2023-10-31T05:57:19;7.10;;;3.67;;
72882;SDS011;61017;37.812;-122.286;2023-10-31T05:58:51;6.13;;;3.53;;
72882;SDS011;61017;37.812;-122.286;2023-10-31T06:00:22;8.05;;;3.63;;
72882;SDS011;61017;37.812;-122.286;2023-10-31T06:01:54;5.57;;;3.83;;
72882;SDS011;61017;37.812;-122.286;2023-10-31T06:03:26;6.63;;;3.90;;
72882;SDS011;61017;37.812;-122.286;2023-10-31T06:04:57;7.20;;;3.88;;
72882;SDS011;61017;37.812;-122.286;2023-10-31T06:06:32;5.85;;;3.30;;
72882;SDS011;61017;37.812;-122.286;2023-10-31T06:08:07;11.38;;;4.00;;
72882;SDS011;61017;37.812;-122.286;2023-10-31T06:09:39;6.20;;;4.00;;
72882;SDS011;61017;37.812;-122.286;2023-10-31T06:11:10;6.65;;;3.88;;
72882;SDS011;61017;37.812;-122.286;2023-10-31T06:12:42;5.50;;;3.70;;
72882;SDS011;61017;37.812;-122.286;2023-10-31T06:14:13;5.43;;;3.63;;
72882;SDS011;61017;37.812;-122.286;2023-10-31T06:15:45;7.80;;;3.85;;
72882;SDS011;61017;37.812;-122.286;2023-10-31T06:17:16;6.22;;;3.83;;
72882;SDS011;61017;37.812;-122.286;2023-10-31T06:18:48;6.60;;;3.70;;
72882;SDS011;61017;37.812;-122.286;2023-10-31T06:20:19;7.13;;;3.70;;
72882;SDS011;61017;37.812;-122.286;2023-10-31T06:21:51;6.20;;;3.50;;
72882;SDS011;61017;37.812;-122.286;2023-10-31T06:23:22;5.10;;;3.60;;
72882;SDS011;61017;37.812;-122.286;2023-10-31T06:24:54;5.50;;;3.70;;
72882;SDS011;61017;37.812;-122.286;2023-10-31T06:26:26;6.68;;;3.78;;
72882;SDS011;61017;37.812;-122.286;2023-10-31T06:27:57;7.03;;;3.75;;
72882;SDS011;61017;37.812;-122.286;2023-10-31T06:29:29;7.15;;;4.25;;
72882;SDS011;61017;37.812;-122.286;2023-10-31T06:31:00;5.38;;;3.80;;
72882;SDS011;61017;37.812;-122.286;2023-10-31T06:32:32;6.65;;;4.32;;
72882;SDS011;61017;37.812;-122.286;2023-10-31T06:34:03;6.50;;;3.80;;
72882;SDS011;61017;37.812;-122.286;2023-10-31T06:35:35;8.85;;;3.90;;
72882;SDS011;61017;37.812;-122.286;2023-10-31T06:37:07;6.00;;;3.67;;
72882;SDS011;61017;37.812;-122.286;2023-10-31T06:38:58;5.45;;;3.65;;
72882;SDS011;61017;37.812;-122.286;2023-10-31T06:40:30;5.75;;;3.83;;
72882;SDS011;61017;37.812;-122.286;2023-10-31T06:42:01;7.32;;;4.15;;
72882;SDS011;61017;37.812;-122.286;2023-10-31T06:43:33;6.70;;;3.90;;
72882;SDS011;61017;37.812;-122.286;2023-10-31T06:45:05;6.88;;;3.92;;
72882;SDS011;61017;37.812;-122.286;2023-10-31T06:46:37;8.17;;;3.53;;
72882;SDS011;61017;37.812;-122.286;2023-10-31T06:48:08;6.20;;;3.97;;
72882;SDS011;61017;37.812;-122.286;2023-10-31T06:49:40;5.97;;;4.00;;
72882;SDS011;61017;37.812;-122.286;2023-10-31T06:51:11;7.10;;;3.83;;
72882;SDS011;61017;37.812;-122.286;2023-10-31T06:52:43;5.32;;;3.70;;
72882;SDS011;61017;37.812;-122.286;2023-10-31T06:54:14;7.82;;;4.22;;
72882;SDS011;61017;37.812;-122.286;2023-10-31T06:55:46;7.40;;;4.22;;
72882;SDS011;61017;37.812;-122.286;2023-10-31T06:57:17;5.50;;;3.83;;
72882;SDS011;61017;37.812;-122.286;2023-10-31T06:58:49;6.00;;;3.85;;
72882;SDS011;61017;37.812;-122.286;2023-10-31T07:00:21;6.22;;;4.10;;
72882;SDS011;61017;37.812;-122.286;2023-10-31T07:01:52;4.95;;;3.90;;
72882;SDS011;61017;37.812;-122.286;2023-10-31T07:03:24;7.00;;;4.28;;
72882;SDS011;61017;37.812;-122.286;2023-10-31T07:04:55;5.43;;;3.80;;
72882;SDS011;61017;37.812;-122.286;2023-10-31T07:06:27;6.25;;;4.03;;
72882;SDS011;61017;37.812;-122.286;2023-10-31T07:07:58;7.03;;;4.03;;
72882;SDS011;61017;37.812;-122.286;2023-10-31T07:09:30;7.20;;;4.13;;
72882;SDS011;61017;37.812;-122.286;2023-10-31T07:11:01;6.70;;;3.92;;
72882;SDS011;61017;37.812;-122.286;2023-10-31T07:12:33;7.75;;;4.00;;
72882;SDS011;61017;37.812;-122.286;2023-10-31T07:14:05;6.15;;;3.97;;
72882;SDS011;61017;37.812;-122.286;2023-10-31T07:15:36;6.50;;;3.78;;
72882;SDS011;61017;37.812;-122.286;2023-10-31T07:17:08;6.15;;;4.35;;
72882;SDS011;61017;37.812;-122.286;2023-10-31T07:18:39;6.15;;;4.25;;
72882;SDS011;61017;37.812;-122.286;2023-10-31T07:20:11;7.07;;;4.30;;
72882;SDS011;61017;37.812;-122.286;2023-10-31T07:21:42;5.90;;;4.15;;
72882;SDS011;61017;37.812;-122.286;2023-10-31T07:23:14;6.20;;;4.03;;
72882;SDS011;61017;37.812;-122.286;2023-10-31T07:24:45;6.53;;;4.00;;
72882;SDS011;61017;37.812;-122.286;2023-10-31T07:26:17;6.32;;;4.30;;
72882;SDS011;61017;37.812;-122.286;2023-10-31T07:27:48;6.95;;;4.93;;
72882;SDS011;61017;37.812;-122.286;2023-10-31T07:29:20;6.65;;;4.75;;
72882;SDS011;61017;37.812;-122.286;2023-10-31T07:30:51;5.85;;;4.30;;
72882;SDS011;61017;37.812;-122.286;2023-10-31T07:32:23;8.18;;;4.78;;
72882;SDS011;61017;37.812;-122.286;2023-10-31T07:33:55;6.13;;;4.15;;
72882;SDS011;61017;37.812;-122.286;2023-10-31T07:35:27;6.60;;;4.45;;
72882;SDS011;61017;37.812;-122.286;2023-10-31T07:36:58;8.25;;;4.82;;
72882;SDS011;61017;37.812;-122.286;2023-10-31T07:38:30;8.00;;;4.53;;
72882;SDS011;61017;37.812;-122.286;2023-10-31T07:40:01;6.35;;;4.60;;
72882;SDS011;61017;37.812;-122.286;2023-10-31T07:41:33;6.25;;;4.45;;
72882;SDS011;61017;37.812;-122.286;2023-10-31T07:43:04;6.68;;;4.32;;
72882;SDS011;61017;37.812;-122.286;2023-10-31T07:44:36;7.35;;;4.80;;
72882;SDS011;61017;37.812;-122.286;2023-10-31T07:46:28;6.50;;;4.57;;
72882;SDS011;61017;37.812;-122.286;2023-10-31T07:47:59;6.53;;;4.43;;
72882;SDS011;61017;37.812;-122.286;2023-10-31T07:49:31;6.70;;;4.38;;
72882;SDS011;61017;37.812;-122.286;2023-10-31T07:51:02;7.50;;;4.65;;
72882;SDS011;61017;37.812;-122.286;2023-10-31T07:52:34;7.78;;;4.82;;
72882;SDS011;61017;37.812;-122.286;2023-10-31T07:54:06;6.28;;;4.65;;
72882;SDS011;61017;37.812;-122.286;2023-10-31T07:55:37;8.07;;;4.60;;
72882;SDS011;61017;37.812;-122.286;2023-10-31T07:57:09;6.13;;;4.53;;
72882;SDS011;61017;37.812;-122.286;2023-10-31T07:58:41;7.07;;;4.57;;
72882;SDS011;61017;37.812;-122.286;2023-10-31T08:00:13;6.45;;;4.53;;
72882;SDS011;61017;37.812;-122.286;2023-10-31T08:01:45;6.90;;;4.80;;
72882;SDS011;61017;37.812;-122.286;2023-10-31T08:03:16;6.57;;;4.63;;
72882;SDS011;61017;37.812;-122.286;2023-10-31T08:04:48;8.55;;;4.88;;
72882;SDS011;61017;37.812;-122.286;2023-10-31T08:06:19;7.28;;;4.97;;
72882;SDS011;61017;37.812;-122.286;2023-10-31T08:07:51;7.18;;;4.95;;
72882;SDS011;61017;37.812;-122.286;2023-10-31T08:09:22;7.63;;;4.90;;
72882;SDS011;61017;37.812;-122.286;2023-10-31T08:10:54;7.10;;;5.22;;
72882;SDS011;61017;37.812;-122.286;2023-10-31T08:12:25;6.43;;;4.95;;
72882;SDS011;61017;37.812;-122.286;2023-10-31T08:13:57;8.85;;;5.25;;
72882;SDS011;61017;37.812;-122.286;2023-10-31T08:15:28;7.32;;;5.13;;
72882;SDS011;61017;37.812;-122.286;2023-10-31T08:17:00;6.47;;;4.90;;
72882;SDS011;61017;37.812;-122.286;2023-10-31T08:18:31;9.35;;;5.28;;
72882;SDS011;61017;37.812;-122.286;2023-10-31T08:20:03;8.75;;;5.30;;
72882;SDS011;61017;37.812;-122.286;2023-10-31T08:21:35;8.18;;;5.38;;
72882;SDS011;61017;37.812;-122.286;2023-10-31T08:23:06;7.60;;;5.57;;
72882;SDS011;61017;37.812;-122.286;2023-10-31T08:24:38;9.57;;;5.53;;
72882;SDS011;61017;37.812;-122.286;2023-10-31T08:26:10;8.80;;;5.35;;
72882;SDS011;61017;37.812;-122.286;2023-10-31T08:27:41;9.23;;;5.75;;
72882;SDS011;61017;37.812;-122.286;2023-10-31T08:29:13;8.70;;;5.40;;
72882;SDS011;61017;37.812;-122.286;2023-10-31T08:30:45;8.40;;;5.82;;
72882;SDS011;61017;37.812;-122.286;2023-10-31T08:32:16;9.35;;;5.85;;
72882;SDS011;61017;37.812;-122.286;2023-10-31T08:33:48;9.43;;;5.78;;
72882;SDS011;61017;37.812;-122.286;2023-10-31T08:35:19;8.30;;;5.53;;
72882;SDS011;61017;37.812;-122.286;2023-10-31T08:36:51;11.38;;;5.90;;
72882;SDS011;61017;37.812;-122.286;2023-10-31T08:38:22;8.90;;;5.78;;
72882;SDS011;61017;37.812;-122.286;2023-10-31T08:39:54;9.00;;;6.13;;
72882;SDS011;61017;37.812;-122.286;2023-10-31T08:41:25;9.95;;;6.07;;
72882;SDS011;61017;37.812;-122.286;2023-10-31T08:42:57;9.52;;;6.28;;
72882;SDS011;61017;37.812;-122.286;2023-10-31T08:44:28;10.20;;;6.15;;
72882;SDS011;61017;37.812;-122.286;2023-10-31T08:46:00;8.75;;;6.00;;
72882;SDS011;61017;37.812;-122.286;2023-10-31T08:47:32;8.48;;;5.93;;
72882;SDS011;61017;37.812;-122.286;2023-10-31T08:49:03;8.98;;;6.00;;